sensor_id;sensor_type;location;lat;lon;timestamp;P1;durP1;ratioP1;P2;durP2;ratioP2
68593;SDS011;55563;52.416;13.548;2023-07-16T00:00:02;2.08;;;1.83;;
68593;SDS011;55563;52.416;13.548;2023-07-16T00:02:17;2.75;;;2.30;;
68593;SDS011;55563;52.416;13.548;2023-07-16T00:04:18;2.40;;;2.10;;
68593;SDS011;55563;52.416;13.548;2023-07-16T00:06:18;2.65;;;2.42;;
68593;SDS011;55563;52.416;13.548;2023-07-16T00:08:19;2.53;;;2.33;;
68593;SDS011;55563;52.416;13.548;2023-07-16T00:10:20;2.30;;;2.10;;
68593;SDS011;55563;52.416;13.548;2023-07-16T00:12:20;2.78;;;2.58;;
68593;SDS011;55563;52.416;13.548;2023-07-16T00:14:21;2.47;;;2.28;;
68593;SDS011;55563;52.416;13.548;2023-07-16T00:16:22;2.88;;;2.30;;
68593;SDS011;55563;52.416;13.548;2023-07-16T00:20:23;2.50;;;2.30;;
68593;SDS011;55563;52.416;13.548;2023-07-16T00:22:24;2.55;;;2.35;;
68593;SDS011;55563;52.416;13.548;2023-07-16T00:24:25;2.53;;;2.33;;
68593;SDS011;55563;52.416;13.548;2023-07-16T00:28:26;1.95;;;1.85;;
68593;SDS011;55563;52.416;13.548;2023-07-16T00:32:27;2.45;;;2.25;;
68593;SDS011;55563;52.416;13.548;2023-07-16T00:34:28;2.45;;;2.25;;
68593;SDS011;55563;52.416;13.548;2023-07-16T00:38:29;2.40;;;2.20;;
68593;SDS011;55563;52.416;13.548;2023-07-16T00:40:31;2.65;;;2.45;;
68593;SDS011;55563;52.416;13.548;2023-07-16T00:42:31;3.15;;;2.55;;
68593;SDS011;55563;52.416;13.548;2023-07-16T00:46:32;3.58;;;2.40;;
68593;SDS011;55563;52.416;13.548;2023-07-16T00:48:33;3.17;;;2.88;;
68593;SDS011;55563;52.416;13.548;2023-07-16T00:50:34;3.88;;;2.45;;
68593;SDS011;55563;52.416;13.548;2023-07-16T00:52:39;2.53;;;2.33;;
68593;SDS011;55563;52.416;13.548;2023-07-16T00:54:40;2.65;;;2.45;;
68593;SDS011;55563;52.416;13.548;2023-07-16T00:56:41;2.50;;;2.30;;
68593;SDS011;55563;52.416;13.548;2023-07-16T00:58:42;2.75;;;2.55;;
68593;SDS011;55563;52.416;13.548;2023-07-16T01:00:43;2.97;;;2.67;;
68593;SDS011;55563;52.416;13.548;2023-07-16T01:02:44;2.85;;;2.60;;
68593;SDS011;55563;52.416;13.548;2023-07-16T01:04:45;3.10;;;2.80;;
68593;SDS011;55563;52.416;13.548;2023-07-16T01:08:59;3.00;;;2.70;;
68593;SDS011;55563;52.416;13.548;2023-07-16T01:11:13;2.85;;;2.60;;
68593;SDS011;55563;52.416;13.548;2023-07-16T01:13:15;3.20;;;2.80;;
68593;SDS011;55563;52.416;13.548;2023-07-16T01:15:16;3.20;;;2.90;;
68593;SDS011;55563;52.416;13.548;2023-07-16T01:17:17;3.30;;;3.00;;
68593;SDS011;55563;52.416;13.548;2023-07-16T01:21:19;3.20;;;2.90;;
68593;SDS011;55563;52.416;13.548;2023-07-16T01:26:08;3.13;;;2.50;;
68593;SDS011;55563;52.416;13.548;2023-07-16T01:28:23;3.97;;;2.90;;
68593;SDS011;55563;52.416;13.548;2023-07-16T01:30:37;3.10;;;2.47;;
68593;SDS011;55563;52.416;13.548;2023-07-16T01:32:41;3.67;;;2.83;;
68593;SDS011;55563;52.416;13.548;2023-07-16T01:34:42;2.70;;;2.40;;
68593;SDS011;55563;52.416;13.548;2023-07-16T01:36:44;2.70;;;2.20;;
68593;SDS011;55563;52.416;13.548;2023-07-16T01:38:46;3.83;;;2.40;;
68593;SDS011;55563;52.416;13.548;2023-07-16T01:40:47;3.78;;;2.33;;
68593;SDS011;55563;52.416;13.548;2023-07-16T01:42:48;2.65;;;2.03;;
68593;SDS011;55563;52.416;13.548;2023-07-16T01:46:53;2.25;;;2.05;;
68593;SDS011;55563;52.416;13.548;2023-07-16T01:49:19;2.53;;;2.08;;
68593;SDS011;55563;52.416;13.548;2023-07-16T01:51:19;4.07;;;2.10;;
68593;SDS011;55563;52.416;13.548;2023-07-16T01:55:21;2.13;;;1.85;;
68593;SDS011;55563;52.416;13.548;2023-07-16T01:59:22;2.88;;;2.03;;
68593;SDS011;55563;52.416;13.548;2023-07-16T02:01:23;2.35;;;1.95;;
68593;SDS011;55563;52.416;13.548;2023-07-16T02:03:23;2.10;;;1.75;;
68593;SDS011;55563;52.416;13.548;2023-07-16T02:05:24;3.50;;;1.83;;
68593;SDS011;55563;52.416;13.548;2023-07-16T02:09:25;1.85;;;1.63;;
68593;SDS011;55563;52.416;13.548;2023-07-16T02:13:27;2.80;;;1.75;;
68593;SDS011;55563;52.416;13.548;2023-07-16T02:17:28;2.25;;;1.70;;
68593;SDS011;55563;52.416;13.548;2023-07-16T02:19:29;1.70;;;1.60;;
68593;SDS011;55563;52.416;13.548;2023-07-16T02:23:30;1.42;;;1.30;;
68593;SDS011;55563;52.416;13.548;2023-07-16T02:25:32;1.50;;;1.30;;
68593;SDS011;55563;52.416;13.548;2023-07-16T02:27:33;3.38;;;1.13;;
68593;SDS011;55563;52.416;13.548;2023-07-16T02:29:34;1.58;;;1.10;;
68593;SDS011;55563;52.416;13.548;2023-07-16T02:33:36;1.50;;;1.40;;
68593;SDS011;55563;52.416;13.548;2023-07-16T02:35:37;1.70;;;1.10;;
68593;SDS011;55563;52.416;13.548;2023-07-16T02:39:38;1.23;;;1.13;;
68593;SDS011;55563;52.416;13.548;2023-07-16T02:41:39;0.90;;;0.85;;
68593;SDS011;55563;52.416;13.548;2023-07-16T02:43:40;1.58;;;1.17;;
68593;SDS011;55563;52.416;13.548;2023-07-16T02:45:41;1.10;;;1.00;;
68593;SDS011;55563;52.416;13.548;2023-07-16T02:47:42;1.75;;;1.17;;
68593;SDS011;55563;52.416;13.548;2023-07-16T02:51:43;1.23;;;1.13;;
68593;SDS011;55563;52.416;13.548;2023-07-16T02:55:45;0.82;;;0.82;;
68593;SDS011;55563;52.416;13.548;2023-07-16T02:57:45;1.25;;;0.90;;
68593;SDS011;55563;52.416;13.548;2023-07-16T03:01:47;1.15;;;1.00;;
68593;SDS011;55563;52.416;13.548;2023-07-16T03:03:48;0.93;;;0.93;;
68593;SDS011;55563;52.416;13.548;2023-07-16T03:05:50;1.35;;;1.00;;
68593;SDS011;55563;52.416;13.548;2023-07-16T03:09:52;1.08;;;0.98;;
68593;SDS011;55563;52.416;13.548;2023-07-16T03:13:53;0.90;;;0.90;;
68593;SDS011;55563;52.416;13.548;2023-07-16T03:17:55;1.48;;;1.08;;
68593;SDS011;55563;52.416;13.548;2023-07-16T03:21:57;1.30;;;1.20;;
68593;SDS011;55563;52.416;13.548;2023-07-16T03:25:59;2.30;;;1.02;;
68593;SDS011;55563;52.416;13.548;2023-07-16T03:28:00;2.08;;;1.20;;
68593;SDS011;55563;52.416;13.548;2023-07-16T03:30:01;1.73;;;1.17;;
68593;SDS011;55563;52.416;13.548;2023-07-16T03:32:05;1.17;;;1.08;;
68593;SDS011;55563;52.416;13.548;2023-07-16T03:36:07;2.00;;;1.10;;
68593;SDS011;55563;52.416;13.548;2023-07-16T03:40:12;2.33;;;1.30;;
68593;SDS011;55563;52.416;13.548;2023-07-16T03:42:16;1.40;;;1.30;;
68593;SDS011;55563;52.416;13.548;2023-07-16T03:46:18;1.23;;;1.13;;
68593;SDS011;55563;52.416;13.548;2023-07-16T03:50:19;1.83;;;1.33;;
68593;SDS011;55563;52.416;13.548;2023-07-16T03:54:21;1.25;;;1.15;;
68593;SDS011;55563;52.416;13.548;2023-07-16T03:58:23;1.58;;;1.30;;
68593;SDS011;55563;52.416;13.548;2023-07-16T04:02:25;1.50;;;1.40;;
68593;SDS011;55563;52.416;13.548;2023-07-16T04:06:27;2.10;;;1.50;;
68593;SDS011;55563;52.416;13.548;2023-07-16T04:10:28;1.88;;;1.50;;
68593;SDS011;55563;52.416;13.548;2023-07-16T04:14:29;1.65;;;1.42;;
68593;SDS011;55563;52.416;13.548;2023-07-16T04:18:30;1.42;;;1.30;;
68593;SDS011;55563;52.416;13.548;2023-07-16T04:22:34;2.75;;;1.73;;
68593;SDS011;55563;52.416;13.548;2023-07-16T04:24:35;2.78;;;1.77;;
68593;SDS011;55563;52.416;13.548;2023-07-16T04:28:36;2.03;;;1.60;;
68593;SDS011;55563;52.416;13.548;2023-07-16T04:30:39;1.92;;;1.60;;
68593;SDS011;55563;52.416;13.548;2023-07-16T04:34:40;3.00;;;1.88;;
68593;SDS011;55563;52.416;13.548;2023-07-16T04:38:43;2.38;;;2.17;;
68593;SDS011;55563;52.416;13.548;2023-07-16T04:42:44;4.72;;;2.30;;
68593;SDS011;55563;52.416;13.548;2023-07-16T04:46:45;2.53;;;2.00;;
68593;SDS011;55563;52.416;13.548;2023-07-16T04:50:47;2.95;;;1.90;;
68593;SDS011;55563;52.416;13.548;2023-07-16T04:54:48;2.05;;;1.83;;
68593;SDS011;55563;52.416;13.548;2023-07-16T04:58:49;2.65;;;2.10;;
68593;SDS011;55563;52.416;13.548;2023-07-16T05:02:50;4.35;;;2.33;;
68593;SDS011;55563;52.416;13.548;2023-07-16T05:06:51;3.13;;;2.03;;
68593;SDS011;55563;52.416;13.548;2023-07-16T05:10:54;2.50;;;2.17;;
68593;SDS011;55563;52.416;13.548;2023-07-16T05:12:55;3.35;;;2.10;;
68593;SDS011;55563;52.416;13.548;2023-07-16T05:16:56;2.53;;;2.10;;
68593;SDS011;55563;52.416;13.548;2023-07-16T05:20:57;1.90;;;1.77;;
68593;SDS011;55563;52.416;13.548;2023-07-16T05:22:58;2.83;;;2.22;;
68593;SDS011;55563;52.416;13.548;2023-07-16T05:26:59;2.22;;;2.00;;
68593;SDS011;55563;52.416;13.548;2023-07-16T05:29:01;2.60;;;2.05;;
68593;SDS011;55563;52.416;13.548;2023-07-16T05:33:03;2.38;;;2.00;;
68593;SDS011;55563;52.416;13.548;2023-07-16T05:37:05;3.42;;;2.10;;
68593;SDS011;55563;52.416;13.548;2023-07-16T05:39:06;2.38;;;2.03;;
68593;SDS011;55563;52.416;13.548;2023-07-16T05:41:08;2.10;;;1.90;;
68593;SDS011;55563;52.416;13.548;2023-07-16T05:43:09;2.45;;;1.83;;
68593;SDS011;55563;52.416;13.548;2023-07-16T05:47:10;2.15;;;1.95;;
68593;SDS011;55563;52.416;13.548;2023-07-16T05:49:11;1.90;;;1.70;;
68593;SDS011;55563;52.416;13.548;2023-07-16T05:51:12;1.73;;;1.63;;
68593;SDS011;55563;52.416;13.548;2023-07-16T05:53:12;1.90;;;1.70;;
68593;SDS011;55563;52.416;13.548;2023-07-16T05:55:14;2.58;;;1.83;;
68593;SDS011;55563;52.416;13.548;2023-07-16T05:57:15;1.88;;;1.52;;
68593;SDS011;55563;52.416;13.548;2023-07-16T05:59:15;1.73;;;1.63;;
68593;SDS011;55563;52.416;13.548;2023-07-16T06:01:16;2.88;;;1.80;;
68593;SDS011;55563;52.416;13.548;2023-07-16T06:05:19;2.40;;;1.80;;
68593;SDS011;55563;52.416;13.548;2023-07-16T06:07:19;1.85;;;1.73;;
68593;SDS011;55563;52.416;13.548;2023-07-16T06:09:20;2.25;;;1.75;;
68593;SDS011;55563;52.416;13.548;2023-07-16T06:11:21;1.98;;;1.48;;
68593;SDS011;55563;52.416;13.548;2023-07-16T06:13:21;1.50;;;1.40;;
68593;SDS011;55563;52.416;13.548;2023-07-16T06:15:22;1.55;;;1.42;;
68593;SDS011;55563;52.416;13.548;2023-07-16T06:17:23;1.90;;;1.48;;
68593;SDS011;55563;52.416;13.548;2023-07-16T06:19:24;1.60;;;1.50;;
68593;SDS011;55563;52.416;13.548;2023-07-16T06:21:24;1.45;;;1.35;;
68593;SDS011;55563;52.416;13.548;2023-07-16T06:23:25;3.65;;;2.10;;
68593;SDS011;55563;52.416;13.548;2023-07-16T06:25:26;1.83;;;1.52;;
68593;SDS011;55563;52.416;13.548;2023-07-16T06:27:26;1.60;;;1.50;;
68593;SDS011;55563;52.416;13.548;2023-07-16T06:29:27;2.17;;;1.60;;
68593;SDS011;55563;52.416;13.548;2023-07-16T06:31:27;1.63;;;1.52;;
68593;SDS011;55563;52.416;13.548;2023-07-16T06:33:28;1.85;;;1.60;;
68593;SDS011;55563;52.416;13.548;2023-07-16T06:35:29;2.85;;;1.67;;
68593;SDS011;55563;52.416;13.548;2023-07-16T06:37:30;1.92;;;1.67;;
68593;SDS011;55563;52.416;13.548;2023-07-16T06:39:30;2.22;;;1.50;;
68593;SDS011;55563;52.416;13.548;2023-07-16T06:41:32;2.78;;;1.63;;
68593;SDS011;55563;52.416;13.548;2023-07-16T06:43:32;4.50;;;2.35;;
68593;SDS011;55563;52.416;13.548;2023-07-16T06:45:33;3.70;;;2.47;;
68593;SDS011;55563;52.416;13.548;2023-07-16T06:47:34;2.65;;;1.95;;
68593;SDS011;55563;52.416;13.548;2023-07-16T06:49:34;2.10;;;1.60;;
68593;SDS011;55563;52.416;13.548;2023-07-16T06:51:35;1.90;;;1.55;;
68593;SDS011;55563;52.416;13.548;2023-07-16T06:53:36;1.75;;;1.63;;
68593;SDS011;55563;52.416;13.548;2023-07-16T06:55:37;1.65;;;1.55;;
68593;SDS011;55563;52.416;13.548;2023-07-16T06:57:38;2.00;;;1.90;;
68593;SDS011;55563;52.416;13.548;2023-07-16T06:59:38;1.70;;;1.60;;
68593;SDS011;55563;52.416;13.548;2023-07-16T07:01:39;2.70;;;1.92;;
68593;SDS011;55563;52.416;13.548;2023-07-16T07:03:40;1.67;;;1.58;;
68593;SDS011;55563;52.416;13.548;2023-07-16T07:05:41;1.92;;;1.73;;
68593;SDS011;55563;52.416;13.548;2023-07-16T07:07:42;1.83;;;1.73;;
68593;SDS011;55563;52.416;13.548;2023-07-16T07:09:47;2.63;;;1.80;;
68593;SDS011;55563;52.416;13.548;2023-07-16T07:11:49;2.13;;;1.85;;
68593;SDS011;55563;52.416;13.548;2023-07-16T07:13:51;2.50;;;1.98;;
68593;SDS011;55563;52.416;13.548;2023-07-16T07:15:52;2.10;;;1.90;;
68593;SDS011;55563;52.416;13.548;2023-07-16T07:17:53;2.30;;;1.92;;
68593;SDS011;55563;52.416;13.548;2023-07-16T07:19:53;1.92;;;1.73;;
68593;SDS011;55563;52.416;13.548;2023-07-16T07:21:54;3.03;;;1.83;;
68593;SDS011;55563;52.416;13.548;2023-07-16T07:23:55;1.63;;;1.52;;
68593;SDS011;55563;52.416;13.548;2023-07-16T07:25:55;1.90;;;1.58;;
68593;SDS011;55563;52.416;13.548;2023-07-16T07:27:56;1.92;;;1.70;;
68593;SDS011;55563;52.416;13.548;2023-07-16T07:29:57;1.80;;;1.42;;
68593;SDS011;55563;52.416;13.548;2023-07-16T07:31:57;1.60;;;1.42;;
68593;SDS011;55563;52.416;13.548;2023-07-16T07:33:58;1.90;;;1.63;;
68593;SDS011;55563;52.416;13.548;2023-07-16T07:35:59;1.70;;;1.42;;
68593;SDS011;55563;52.416;13.548;2023-07-16T07:38:00;2.35;;;1.42;;
68593;SDS011;55563;52.416;13.548;2023-07-16T07:40:01;1.63;;;1.52;;
68593;SDS011;55563;52.416;13.548;2023-07-16T07:42:03;3.63;;;1.75;;
68593;SDS011;55563;52.416;13.548;2023-07-16T07:44:04;2.35;;;1.73;;
68593;SDS011;55563;52.416;13.548;2023-07-16T07:46:05;1.80;;;1.70;;
68593;SDS011;55563;52.416;13.548;2023-07-16T07:48:06;1.63;;;1.48;;
68593;SDS011;55563;52.416;13.548;2023-07-16T07:50:07;2.38;;;1.52;;
68593;SDS011;55563;52.416;13.548;2023-07-16T07:52:08;1.80;;;1.55;;
68593;SDS011;55563;52.416;13.548;2023-07-16T07:54:08;1.63;;;1.52;;
68593;SDS011;55563;52.416;13.548;2023-07-16T07:56:09;1.70;;;1.60;;
68593;SDS011;55563;52.416;13.548;2023-07-16T07:58:09;2.00;;;1.55;;
68593;SDS011;55563;52.416;13.548;2023-07-16T08:00:10;2.10;;;1.67;;
68593;SDS011;55563;52.416;13.548;2023-07-16T08:02:15;1.55;;;1.45;;
68593;SDS011;55563;52.416;13.548;2023-07-16T08:04:15;3.67;;;1.60;;
68593;SDS011;55563;52.416;13.548;2023-07-16T08:06:31;1.55;;;1.45;;
68593;SDS011;55563;52.416;13.548;2023-07-16T08:08:32;1.90;;;1.48;;
68593;SDS011;55563;52.416;13.548;2023-07-16T08:10:33;1.50;;;1.40;;
68593;SDS011;55563;52.416;13.548;2023-07-16T08:12:34;2.20;;;1.42;;
68593;SDS011;55563;52.416;13.548;2023-07-16T08:14:35;2.03;;;1.45;;
68593;SDS011;55563;52.416;13.548;2023-07-16T08:16:35;1.83;;;1.63;;
68593;SDS011;55563;52.416;13.548;2023-07-16T08:18:36;1.65;;;1.55;;
68593;SDS011;55563;52.416;13.548;2023-07-16T08:20:37;2.83;;;1.83;;
68593;SDS011;55563;52.416;13.548;2023-07-16T08:22:38;1.98;;;1.67;;
68593;SDS011;55563;52.416;13.548;2023-07-16T08:24:39;1.58;;;1.48;;
68593;SDS011;55563;52.416;13.548;2023-07-16T08:26:39;2.35;;;1.65;;
68593;SDS011;55563;52.416;13.548;2023-07-16T08:28:40;1.48;;;1.38;;
68593;SDS011;55563;52.416;13.548;2023-07-16T08:30:41;1.40;;;1.30;;
68593;SDS011;55563;52.416;13.548;2023-07-16T08:32:42;1.52;;;1.42;;
68593;SDS011;55563;52.416;13.548;2023-07-16T08:34:42;2.00;;;1.40;;
68593;SDS011;55563;52.416;13.548;2023-07-16T08:36:43;2.25;;;1.75;;
68593;SDS011;55563;52.416;13.548;2023-07-16T08:38:44;1.60;;;1.50;;
68593;SDS011;55563;52.416;13.548;2023-07-16T08:40:46;1.60;;;1.50;;
68593;SDS011;55563;52.416;13.548;2023-07-16T08:42:48;1.63;;;1.30;;
68593;SDS011;55563;52.416;13.548;2023-07-16T08:44:50;1.73;;;1.20;;
68593;SDS011;55563;52.416;13.548;2023-07-16T08:46:51;2.03;;;1.25;;
68593;SDS011;55563;52.416;13.548;2023-07-16T08:48:52;1.20;;;1.10;;
68593;SDS011;55563;52.416;13.548;2023-07-16T08:50:53;1.23;;;1.13;;
68593;SDS011;55563;52.416;13.548;2023-07-16T08:52:57;1.55;;;1.40;;
68593;SDS011;55563;52.416;13.548;2023-07-16T08:54:58;1.42;;;1.33;;
68593;SDS011;55563;52.416;13.548;2023-07-16T08:56:59;1.13;;;1.02;;
68593;SDS011;55563;52.416;13.548;2023-07-16T08:59:00;1.80;;;1.30;;
68593;SDS011;55563;52.416;13.548;2023-07-16T09:01:01;2.95;;;1.50;;
68593;SDS011;55563;52.416;13.548;2023-07-16T09:03:03;1.40;;;1.30;;
68593;SDS011;55563;52.416;13.548;2023-07-16T09:05:04;1.38;;;1.20;;
68593;SDS011;55563;52.416;13.548;2023-07-16T09:07:05;1.20;;;1.10;;
68593;SDS011;55563;52.416;13.548;2023-07-16T09:09:06;1.30;;;1.20;;
68593;SDS011;55563;52.416;13.548;2023-07-16T09:11:10;1.40;;;1.20;;
68593;SDS011;55563;52.416;13.548;2023-07-16T09:13:18;1.35;;;1.23;;
68593;SDS011;55563;52.416;13.548;2023-07-16T09:15:19;1.20;;;0.93;;
68593;SDS011;55563;52.416;13.548;2023-07-16T09:17:21;1.75;;;1.33;;
68593;SDS011;55563;52.416;13.548;2023-07-16T09:19:24;1.52;;;1.42;;
68593;SDS011;55563;52.416;13.548;2023-07-16T09:21:25;2.13;;;1.38;;
68593;SDS011;55563;52.416;13.548;2023-07-16T09:23:29;3.40;;;1.30;;
68593;SDS011;55563;52.416;13.548;2023-07-16T09:25:31;1.90;;;1.45;;
68593;SDS011;55563;52.416;13.548;2023-07-16T09:27:32;1.75;;;1.30;;
68593;SDS011;55563;52.416;13.548;2023-07-16T09:29:33;1.67;;;1.20;;
68593;SDS011;55563;52.416;13.548;2023-07-16T09:31:33;1.83;;;1.50;;
68593;SDS011;55563;52.416;13.548;2023-07-16T09:33:56;1.60;;;1.45;;
68593;SDS011;55563;52.416;13.548;2023-07-16T09:35:59;2.28;;;1.27;;
68593;SDS011;55563;52.416;13.548;2023-07-16T09:38:00;1.40;;;1.23;;
68593;SDS011;55563;52.416;13.548;2023-07-16T09:40:01;1.52;;;1.33;;
68593;SDS011;55563;52.416;13.548;2023-07-16T09:42:03;1.33;;;1.23;;
68593;SDS011;55563;52.416;13.548;2023-07-16T09:44:05;1.83;;;1.35;;
68593;SDS011;55563;52.416;13.548;2023-07-16T09:46:06;1.58;;;1.42;;
68593;SDS011;55563;52.416;13.548;2023-07-16T09:48:07;1.38;;;1.27;;
68593;SDS011;55563;52.416;13.548;2023-07-16T09:50:09;1.30;;;1.20;;
68593;SDS011;55563;52.416;13.548;2023-07-16T09:52:10;1.60;;;1.50;;
68593;SDS011;55563;52.416;13.548;2023-07-16T09:54:12;1.90;;;1.38;;
68593;SDS011;55563;52.416;13.548;2023-07-16T09:56:14;1.70;;;1.55;;
68593;SDS011;55563;52.416;13.548;2023-07-16T09:58:17;1.50;;;1.40;;
68593;SDS011;55563;52.416;13.548;2023-07-16T10:00:20;1.52;;;1.42;;
68593;SDS011;55563;52.416;13.548;2023-07-16T10:02:23;1.95;;;1.52;;
68593;SDS011;55563;52.416;13.548;2023-07-16T10:04:23;1.73;;;1.58;;
68593;SDS011;55563;52.416;13.548;2023-07-16T10:06:24;1.60;;;1.50;;
68593;SDS011;55563;52.416;13.548;2023-07-16T10:08:25;1.80;;;1.33;;
68593;SDS011;55563;52.416;13.548;2023-07-16T10:10:48;1.95;;;1.58;;
68593;SDS011;55563;52.416;13.548;2023-07-16T10:12:54;1.52;;;1.40;;
68593;SDS011;55563;52.416;13.548;2023-07-16T10:14:57;2.00;;;1.67;;
68593;SDS011;55563;52.416;13.548;2023-07-16T10:17:01;1.77;;;1.55;;
68593;SDS011;55563;52.416;13.548;2023-07-16T10:19:02;1.85;;;1.73;;
68593;SDS011;55563;52.416;13.548;2023-07-16T10:21:05;2.10;;;1.50;;
68593;SDS011;55563;52.416;13.548;2023-07-16T10:23:11;2.55;;;1.48;;
68593;SDS011;55563;52.416;13.548;2023-07-16T10:27:26;1.92;;;1.42;;
68593;SDS011;55563;52.416;13.548;2023-07-16T10:29:29;2.38;;;1.75;;
68593;SDS011;55563;52.416;13.548;2023-07-16T10:31:29;1.98;;;1.40;;
68593;SDS011;55563;52.416;13.548;2023-07-16T10:33:33;2.53;;;1.75;;
68593;SDS011;55563;52.416;13.548;2023-07-16T10:35:40;1.77;;;1.65;;
68593;SDS011;55563;52.416;13.548;2023-07-16T10:37:41;1.60;;;1.50;;
68593;SDS011;55563;52.416;13.548;2023-07-16T10:39:46;1.83;;;1.50;;
68593;SDS011;55563;52.416;13.548;2023-07-16T10:41:49;1.95;;;1.65;;
68593;SDS011;55563;52.416;13.548;2023-07-16T10:43:50;1.67;;;1.52;;
68593;SDS011;55563;52.416;13.548;2023-07-16T10:45:50;1.85;;;1.40;;
68593;SDS011;55563;52.416;13.548;2023-07-16T10:47:53;1.30;;;1.20;;
68593;SDS011;55563;52.416;13.548;2023-07-16T10:49:55;2.33;;;1.40;;
68593;SDS011;55563;52.416;13.548;2023-07-16T10:51:57;1.80;;;1.42;;
68593;SDS011;55563;52.416;13.548;2023-07-16T10:54:00;2.42;;;1.60;;
68593;SDS011;55563;52.416;13.548;2023-07-16T10:56:00;1.38;;;1.23;;
68593;SDS011;55563;52.416;13.548;2023-07-16T10:58:03;1.92;;;1.83;;
68593;SDS011;55563;52.416;13.548;2023-07-16T11:00:09;1.95;;;1.50;;
68593;SDS011;55563;52.416;13.548;2023-07-16T11:02:11;1.50;;;1.38;;
68593;SDS011;55563;52.416;13.548;2023-07-16T11:04:13;1.42;;;1.33;;
68593;SDS011;55563;52.416;13.548;2023-07-16T11:06:14;1.73;;;1.60;;
68593;SDS011;55563;52.416;13.548;2023-07-16T11:08:24;2.13;;;1.50;;
68593;SDS011;55563;52.416;13.548;2023-07-16T11:10:28;2.15;;;1.52;;
68593;SDS011;55563;52.416;13.548;2023-07-16T11:12:29;1.77;;;1.58;;
68593;SDS011;55563;52.416;13.548;2023-07-16T11:14:30;1.73;;;1.63;;
68593;SDS011;55563;52.416;13.548;2023-07-16T11:16:32;1.55;;;1.23;;
68593;SDS011;55563;52.416;13.548;2023-07-16T11:18:35;1.48;;;1.35;;
68593;SDS011;55563;52.416;13.548;2023-07-16T11:20:36;1.45;;;1.33;;
68593;SDS011;55563;52.416;13.548;2023-07-16T11:22:38;1.35;;;1.25;;
68593;SDS011;55563;52.416;13.548;2023-07-16T11:24:40;1.83;;;1.42;;
68593;SDS011;55563;52.416;13.548;2023-07-16T11:26:51;1.67;;;1.42;;
68593;SDS011;55563;52.416;13.548;2023-07-16T11:28:52;1.70;;;1.42;;
68593;SDS011;55563;52.416;13.548;2023-07-16T11:30:53;2.10;;;1.90;;
68593;SDS011;55563;52.416;13.548;2023-07-16T11:32:53;5.53;;;4.97;;
68593;SDS011;55563;52.416;13.548;2023-07-16T11:34:55;59.40;;;55.22;;
68593;SDS011;55563;52.416;13.548;2023-07-16T11:37:12;140.40;;;130.57;;
68593;SDS011;55563;52.416;13.548;2023-07-16T11:39:13;65.60;;;60.83;;
68593;SDS011;55563;52.416;13.548;2023-07-16T11:41:13;7.45;;;6.90;;
68593;SDS011;55563;52.416;13.548;2023-07-16T11:43:14;3.67;;;3.38;;
68593;SDS011;55563;52.416;13.548;2023-07-16T11:45:16;2.75;;;2.55;;
68593;SDS011;55563;52.416;13.548;2023-07-16T11:47:20;2.50;;;2.30;;
68593;SDS011;55563;52.416;13.548;2023-07-16T11:49:20;5.03;;;1.95;;
68593;SDS011;55563;52.416;13.548;2023-07-16T11:51:21;1.63;;;1.42;;
68593;SDS011;55563;52.416;13.548;2023-07-16T11:53:22;1.35;;;1.13;;
68593;SDS011;55563;52.416;13.548;2023-07-16T11:55:22;2.00;;;1.52;;
68593;SDS011;55563;52.416;13.548;2023-07-16T11:57:26;2.00;;;1.33;;
68593;SDS011;55563;52.416;13.548;2023-07-16T11:59:27;1.45;;;1.33;;
68593;SDS011;55563;52.416;13.548;2023-07-16T12:01:27;2.97;;;1.65;;
68593;SDS011;55563;52.416;13.548;2023-07-16T12:03:28;2.00;;;1.25;;
68593;SDS011;55563;52.416;13.548;2023-07-16T12:05:28;1.77;;;1.40;;
68593;SDS011;55563;52.416;13.548;2023-07-16T12:07:33;2.10;;;1.02;;
68593;SDS011;55563;52.416;13.548;2023-07-16T12:09:35;1.30;;;1.20;;
68593;SDS011;55563;52.416;13.548;2023-07-16T12:11:36;2.50;;;1.20;;
68593;SDS011;55563;52.416;13.548;2023-07-16T12:13:38;1.48;;;1.02;;
68593;SDS011;55563;52.416;13.548;2023-07-16T12:15:39;1.25;;;0.90;;
68593;SDS011;55563;52.416;13.548;2023-07-16T12:17:39;1.40;;;1.05;;
68593;SDS011;55563;52.416;13.548;2023-07-16T12:19:40;1.73;;;1.42;;
68593;SDS011;55563;52.416;13.548;2023-07-16T12:21:41;1.30;;;1.17;;
68593;SDS011;55563;52.416;13.548;2023-07-16T12:23:41;1.40;;;1.30;;
68593;SDS011;55563;52.416;13.548;2023-07-16T12:25:42;2.75;;;1.48;;
68593;SDS011;55563;52.416;13.548;2023-07-16T12:27:43;1.48;;;1.30;;
68593;SDS011;55563;52.416;13.548;2023-07-16T12:29:44;2.20;;;1.30;;
68593;SDS011;55563;52.416;13.548;2023-07-16T12:31:45;1.15;;;0.93;;
68593;SDS011;55563;52.416;13.548;2023-07-16T12:33:48;40.72;;;35.83;;
68593;SDS011;55563;52.416;13.548;2023-07-16T12:35:49;3.60;;;2.45;;
68593;SDS011;55563;52.416;13.548;2023-07-16T12:37:49;2.55;;;1.55;;
68593;SDS011;55563;52.416;13.548;2023-07-16T12:39:50;1.75;;;1.30;;
68593;SDS011;55563;52.416;13.548;2023-07-16T12:41:51;2.20;;;1.38;;
68593;SDS011;55563;52.416;13.548;2023-07-16T12:43:51;1.38;;;1.23;;
68593;SDS011;55563;52.416;13.548;2023-07-16T12:45:52;1.13;;;1.02;;
68593;SDS011;55563;52.416;13.548;2023-07-16T12:47:53;1.52;;;1.13;;
68593;SDS011;55563;52.416;13.548;2023-07-16T12:49:53;1.38;;;1.23;;
68593;SDS011;55563;52.416;13.548;2023-07-16T12:51:54;1.10;;;0.95;;
68593;SDS011;55563;52.416;13.548;2023-07-16T12:53:54;1.40;;;1.27;;
68593;SDS011;55563;52.416;13.548;2023-07-16T12:55:55;1.17;;;1.08;;
68593;SDS011;55563;52.416;13.548;2023-07-16T12:57:56;2.67;;;1.50;;
68593;SDS011;55563;52.416;13.548;2023-07-16T12:59:57;1.33;;;1.23;;
68593;SDS011;55563;52.416;13.548;2023-07-16T13:01:57;1.20;;;1.10;;
68593;SDS011;55563;52.416;13.548;2023-07-16T13:03:58;2.00;;;1.02;;
68593;SDS011;55563;52.416;13.548;2023-07-16T13:05:59;1.40;;;1.10;;
68593;SDS011;55563;52.416;13.548;2023-07-16T13:07:59;3.42;;;1.55;;
68593;SDS011;55563;52.416;13.548;2023-07-16T13:10:00;2.10;;;1.23;;
68593;SDS011;55563;52.416;13.548;2023-07-16T13:12:01;1.42;;;1.15;;
68593;SDS011;55563;52.416;13.548;2023-07-16T13:14:01;1.42;;;1.13;;
68593;SDS011;55563;52.416;13.548;2023-07-16T13:16:02;1.42;;;1.20;;
68593;SDS011;55563;52.416;13.548;2023-07-16T13:18:03;1.52;;;1.33;;
68593;SDS011;55563;52.416;13.548;2023-07-16T13:20:04;1.27;;;1.10;;
68593;SDS011;55563;52.416;13.548;2023-07-16T13:22:05;1.13;;;1.02;;
68593;SDS011;55563;52.416;13.548;2023-07-16T13:24:06;3.03;;;1.30;;
68593;SDS011;55563;52.416;13.548;2023-07-16T13:26:11;1.90;;;1.45;;
68593;SDS011;55563;52.416;13.548;2023-07-16T13:28:11;1.35;;;1.25;;
68593;SDS011;55563;52.416;13.548;2023-07-16T13:30:12;1.48;;;1.33;;
68593;SDS011;55563;52.416;13.548;2023-07-16T13:32:13;2.03;;;1.02;;
68593;SDS011;55563;52.416;13.548;2023-07-16T13:34:14;1.67;;;1.20;;
68593;SDS011;55563;52.416;13.548;2023-07-16T13:36:15;1.50;;;1.35;;
68593;SDS011;55563;52.416;13.548;2023-07-16T13:38:16;1.60;;;1.20;;
68593;SDS011;55563;52.416;13.548;2023-07-16T13:40:16;1.20;;;1.10;;
68593;SDS011;55563;52.416;13.548;2023-07-16T13:42:20;1.73;;;1.20;;
68593;SDS011;55563;52.416;13.548;2023-07-16T13:44:21;1.23;;;1.13;;
68593;SDS011;55563;52.416;13.548;2023-07-16T13:46:22;1.30;;;1.20;;
68593;SDS011;55563;52.416;13.548;2023-07-16T13:48:22;1.30;;;1.20;;
68593;SDS011;55563;52.416;13.548;2023-07-16T13:50:23;3.05;;;1.20;;
68593;SDS011;55563;52.416;13.548;2023-07-16T13:52:24;1.60;;;1.33;;
68593;SDS011;55563;52.416;13.548;2023-07-16T13:54:24;1.30;;;1.20;;